ENRM

Rørvik , Ryum Airport

Rørvik, Norway
METAR ENRM 221520Z 36010KT 9999 FEW025 BKN060 09/05 Q1027
Observed Flight Rules
May-22 @ 15:20 UTC (28 minutes ago) Visual Flight Rules
Wind Visibility Clouds
360° at 10 knots 10,000+ meters
  • Few at 2,500' AGL
  • Broken at 6,000' AGL
Temperatures Readings
Current 9°C / 48°F
Dewpoint 5°C / 41°F
Humidity 76%
Altimeter 30.32" Hg
Pressure 1027 hPa
Elevation 14
METAR ENRM 221520Z 36010KT 9999 FEW025 BKN060 09/05 Q1027
Observed Flight Rules
May-22 @ 15:20 UTC
(28 minutes ago)
VFR
Wind Visibility
360° at 10 knots 10,000+ meters
Clouds
  • Few at 2,500' AGL
  • Broken at 6,000' AGL
Temperature Dewpoint
9°C / 48°F 5°C / 41°F
Humidity Altimeter Pressure
76% 30.32" Hg 1027 hPa